Time;durP1;ratioP1;P1;durP2;ratioP2;P2;SDS_P1;SDS_P2;PMS_P1;PMS_P2;Temp;Humidity;BMP_temperature;BMP_pressure;BME280_temperature;BME280_humidity;BME280_pressure;Samples;Min_cycle;Max_cycle;Signal;HPM_P1;HPM_P2
2022/07/28 00:04:40;;;;;;;3.92;0.30;;;15.10;99.90;;;;;;20662560;28;20034;-40
2022/07/28 00:14:42;;;;;;;1.25;0.20;;;15.00;99.90;;;;;;20665174;28;20049;-41
2022/07/28 00:24:43;;;;;;;1.20;0.30;;;15.00;99.90;;;;;;20675399;28;20045;-41
2022/07/28 00:34:44;;;;;;;1.15;0.20;;;15.00;99.90;;;;;;20677686;28;20053;-40
2022/07/28 00:44:45;;;;;;;0.50;0.13;;;14.90;99.90;;;;;;20681102;28;20096;-40
2022/07/28 00:54:46;;;;;;;1.08;0.65;;;14.90;99.90;;;;;;20673307;28;20048;-40
2022/07/28 01:04:47;;;;;;;0.95;0.32;;;14.70;99.90;;;;;;20651327;28;20050;-40
2022/07/28 01:14:56;;;;;;;0.57;0.30;;;14.50;99.90;;;;;;20650006;28;20066;-40
2022/07/28 01:25:20;;;;;;;3.63;0.40;;;14.50;99.90;;;;;;20654424;28;20063;-39
2022/07/28 01:35:27;;;;;;;0.98;0.40;;;14.40;99.90;;;;;;20645401;28;20170;-40
2022/07/28 01:45:31;;;;;;;0.87;0.30;;;14.40;99.90;;;;;;20643956;28;20909;-40
2022/07/28 01:55:33;;;;;;;0.95;0.43;;;14.30;99.90;;;;;;20642617;28;20069;-40
2022/07/28 02:05:36;;;;;;;0.55;0.30;;;14.30;99.90;;;;;;20643820;28;20958;-40
2022/07/28 02:15:39;;;;;;;1.00;0.40;;;14.20;99.90;;;;;;20638685;28;20132;-40
2022/07/28 02:25:40;;;;;;;1.15;0.38;;;14.10;99.90;;;;;;20642159;28;20190;-40
2022/07/28 02:35:50;;;;;;;6.13;0.40;;;14.10;99.90;;;;;;20639653;28;20640;-39
2022/07/28 02:45:54;;;;;;;0.50;0.20;;;14.00;99.90;;;;;;20637163;28;20058;-40
2022/07/28 02:55:56;;;;;;;2.05;0.45;;;13.90;99.90;;;;;;20638900;28;20145;-39
2022/07/28 03:05:57;;;;;;;1.15;0.73;;;14.00;99.90;;;;;;20637935;28;20122;-40
2022/07/28 03:15:58;;;;;;;2.08;0.38;;;13.90;99.90;;;;;;20643788;28;20132;-40
2022/07/28 03:26:05;;;;;;;1.33;0.30;;;13.90;99.90;;;;;;20642113;28;20038;-40
2022/07/28 03:36:14;;;;;;;1.00;0.30;;;13.80;99.90;;;;;;20639205;28;20823;-40
2022/07/28 03:46:15;;;;;;;0.50;0.20;;;13.80;99.90;;;;;;20634643;28;20090;-39
2022/07/28 03:56:16;;;;;;;1.15;0.30;;;13.80;99.90;;;;;;20637035;28;20125;-40
2022/07/28 04:06:17;;;;;;;0.75;0.30;;;13.80;99.90;;;;;;20636001;28;20042;-40
2022/07/28 04:16:18;;;;;;;0.70;0.30;;;13.70;99.90;;;;;;20635461;28;20112;-39
2022/07/28 04:26:19;;;;;;;0.65;0.20;;;13.60;99.90;;;;;;20638415;28;20030;-40
2022/07/28 04:36:20;;;;;;;0.90;0.38;;;13.60;99.90;;;;;;20630106;28;20094;-40
2022/07/28 04:46:21;;;;;;;0.65;0.30;;;13.60;99.90;;;;;;20645548;28;20117;-40
2022/07/28 04:56:22;;;;;;;2.40;0.77;;;13.60;99.90;;;;;;20630411;28;20065;-40
2022/07/28 05:06:23;;;;;;;1.83;0.30;;;13.60;99.90;;;;;;20633796;28;20972;-40
2022/07/28 05:16:24;;;;;;;0.75;0.40;;;13.60;99.90;;;;;;20643204;28;20042;-40
2022/07/28 05:26:27;;;;;;;1.48;0.38;;;13.70;99.90;;;;;;20627555;28;20061;-40
2022/07/28 05:36:29;;;;;;;0.65;0.20;;;13.80;99.90;;;;;;20632936;28;20082;-40
2022/07/28 05:46:31;;;;;;;0.70;0.30;;;14.20;99.90;;;;;;20634995;28;20043;-39
2022/07/28 05:56:32;;;;;;;1.45;0.40;;;14.70;99.90;;;;;;20639345;28;20526;-39
2022/07/28 06:06:33;;;;;;;1.17;0.20;;;14.80;99.90;;;;;;20624196;28;20128;-40
2022/07/28 06:16:34;;;;;;;0.43;0.13;;;14.80;99.90;;;;;;20622189;28;20164;-40
2022/07/28 06:26:36;;;;;;;1.52;0.55;;;14.80;99.90;;;;;;20619385;28;20041;-40
2022/07/28 06:36:37;;;;;;;1.05;0.32;;;14.90;99.90;;;;;;20650690;28;20058;-40
2022/07/28 06:46:38;;;;;;;1.77;0.50;;;15.00;99.90;;;;;;20654679;28;20050;-40
2022/07/28 06:56:39;;;;;;;1.95;0.17;;;15.50;99.90;;;;;;20657222;28;20034;-40
2022/07/28 07:06:41;;;;;;;1.20;0.40;;;15.90;99.90;;;;;;20656870;28;20041;-41
2022/07/28 07:16:42;;;;;;;2.03;1.05;;;16.10;99.90;;;;;;20655821;28;20108;-40
2022/07/28 07:26:43;;;;;;;1.35;0.25;;;16.10;99.90;;;;;;20650894;28;20042;-41
2022/07/28 07:36:44;;;;;;;0.68;0.25;;;16.50;99.90;;;;;;20661953;28;20046;-40
2022/07/28 07:46:45;;;;;;;0.85;0.30;;;17.00;99.90;;;;;;20653594;28;20033;-40
2022/07/28 07:56:46;;;;;;;0.70;0.17;;;17.30;99.90;;;;;;20648722;28;20034;-40
2022/07/28 08:06:51;;;;;;;0.52;0.10;;;17.40;99.90;;;;;;20659910;28;20073;-40
2022/07/28 08:16:55;;;;;;;0.40;0.10;;;17.60;99.90;;;;;;20669995;28;20391;-40
2022/07/28 08:26:56;;;;;;;0.30;0.20;;;17.80;99.90;;;;;;20663952;28;20046;-40
2022/07/28 08:36:57;;;;;;;0.63;0.15;;;18.10;99.90;;;;;;20664175;28;20049;-40
2022/07/28 08:46:58;;;;;;;0.52;0.20;;;18.20;99.90;;;;;;20679888;28;20070;-40
2022/07/28 08:57:01;;;;;;;0.32;0.10;;;18.30;99.90;;;;;;20689141;28;20038;-40
2022/07/28 09:07:03;;;;;;;0.38;0.20;;;18.70;99.90;;;;;;20708205;28;20058;-40
2022/07/28 09:17:04;;;;;;;2.40;0.75;;;18.90;99.90;;;;;;20722672;28;20065;-40
2022/07/28 09:27:09;;;;;;;0.70;0.10;;;19.30;99.90;;;;;;20706878;28;20037;-39
2022/07/28 09:37:20;;;;;;;0.52;0.10;;;20.20;99.90;;;;;;20717948;28;20548;-40
2022/07/28 09:47:23;;;;;;;0.25;0.10;;;20.40;99.50;;;;;;20706156;28;20114;-40
2022/07/28 09:57:28;;;;;;;0.20;0.03;;;20.30;99.60;;;;;;20703632;28;20754;-39
2022/07/28 10:07:30;;;;;;;0.80;0.20;;;20.60;98.20;;;;;;20722100;28;20042;-40
2022/07/28 10:17:34;;;;;;;0.50;0.20;;;21.00;98.30;;;;;;20707250;28;20033;-40
2022/07/28 10:27:38;;;;;;;0.52;0.20;;;20.70;98.20;;;;;;20691528;28;20034;-40
2022/07/28 10:38:02;;;;;;;0.17;0.00;;;20.80;98.90;;;;;;20678615;28;20110;-39
2022/07/28 10:48:04;;;;;;;0.40;0.05;;;21.20;97.80;;;;;;20668222;28;20046;-40
2022/07/28 10:58:37;;;;;;;0.20;0.20;;;21.70;97.30;;;;;;20599807;28;20125;-41
2022/07/28 11:08:38;;;;;;;0.25;0.10;;;22.20;97.80;;;;;;20620395;28;20284;-40
2022/07/28 11:19:05;;;;;;;3.25;0.10;;;22.30;96.20;;;;;;20622004;28;20553;-41
2022/07/28 11:29:13;;;;;;;0.20;0.10;;;22.50;96.10;;;;;;20611142;28;20174;-41
2022/07/28 11:39:24;;;;;;;;;;;22.80;94.90;;;;;;20617923;28;20133;-41
2022/07/28 11:49:26;;;;;;;0.65;0.13;;;23.20;95.00;;;;;;20611264;28;21867;-41
2022/07/28 11:59:27;;;;;;;0.40;0.10;;;23.10;94.30;;;;;;20595827;28;20038;-41
2022/07/28 12:09:32;;;;;;;0.28;0.10;;;23.20;94.10;;;;;;20618984;28;20065;-41
2022/07/28 12:19:33;;;;;;;1.75;0.17;;;23.10;93.90;;;;;;20607584;28;20130;-41
2022/07/28 12:29:35;;;;;;;0.40;0.20;;;22.80;94.00;;;;;;20605360;28;20568;-39
2022/07/28 12:39:38;;;;;;;0.52;0.20;;;23.40;94.30;;;;;;20607234;28;20077;-39
2022/07/28 12:49:41;;;;;;;0.43;0.10;;;24.20;92.20;;;;;;20591035;28;20117;-39
2022/07/28 12:59:42;;;;;;;0.50;0.10;;;24.70;92.00;;;;;;20607338;28;20133;-39
2022/07/28 13:09:46;;;;;;;0.38;0.10;;;24.60;92.10;;;;;;20606646;28;20269;-39
2022/07/28 13:19:48;;;;;;;0.43;0.30;;;24.70;91.20;;;;;;20609142;28;20120;-39
2022/07/28 13:29:49;;;;;;;0.20;0.10;;;25.40;91.30;;;;;;20632348;28;20498;-36
2022/07/28 13:39:50;;;;;;;0.52;0.15;;;25.80;91.90;;;;;;20632577;28;20593;-37
2022/07/28 13:49:51;;;;;;;0.93;0.30;;;26.40;89.30;;;;;;20616414;28;21546;-37
2022/07/28 13:59:52;;;;;;;1.13;0.10;;;26.30;88.90;;;;;;20617611;28;20137;-37
2022/07/28 14:09:53;;;;;;;0.40;0.10;;;25.70;90.70;;;;;;20633409;28;20046;-37
2022/07/28 14:19:54;;;;;;;0.65;0.17;;;24.10;91.90;;;;;;20653342;28;20034;-39
2022/07/28 14:29:56;;;;;;;0.95;0.10;;;23.60;93.10;;;;;;20665007;28;20486;-39
2022/07/28 14:39:57;;;;;;;0.68;0.20;;;23.30;93.30;;;;;;20657796;28;20561;-39
2022/07/28 14:49:59;;;;;;;0.70;0.25;;;24.00;92.70;;;;;;20633119;28;20035;-39
2022/07/28 15:00:00;;;;;;;0.40;0.10;;;23.70;93.40;;;;;;20629863;28;20109;-39
2022/07/28 15:10:01;;;;;;;0.45;0.22;;;23.60;93.50;;;;;;20609124;28;20547;-39
2022/07/28 15:20:05;;;;;;;0.38;0.15;;;23.80;92.50;;;;;;20609026;28;20054;-39
2022/07/28 15:30:07;;;;;;;2.50;0.40;;;23.60;93.30;;;;;;20614958;28;20154;-39
2022/07/28 15:40:09;;;;;;;1.15;0.10;;;23.30;93.50;;;;;;20612324;28;20054;-39
2022/07/28 15:50:10;;;;;;;0.80;0.30;;;23.00;94.60;;;;;;20614728;28;20117;-40
2022/07/28 16:00:11;;;;;;;0.35;0.10;;;22.70;94.70;;;;;;20619074;28;20136;-42
2022/07/28 16:10:12;;;;;;;0.57;0.10;;;22.50;94.40;;;;;;20615778;28;20121;-41
2022/07/28 16:20:13;;;;;;;0.82;0.30;;;22.20;95.00;;;;;;20614028;28;20186;-41
2022/07/28 16:30:17;;;;;;;0.40;0.20;;;22.20;95.40;;;;;;20609177;28;20066;-42
2022/07/28 16:40:19;;;;;;;0.85;0.10;;;22.00;95.60;;;;;;20607828;28;20128;-42
2022/07/28 16:50:22;;;;;;;2.20;0.40;;;21.90;95.50;;;;;;20609048;28;20507;-42
2022/07/28 17:00:24;;;;;;;0.57;0.20;;;21.80;96.40;;;;;;20611396;28;21999;-41
2022/07/28 17:10:25;;;;;;;0.47;0.20;;;21.80;96.50;;;;;;20632397;28;20109;-42
2022/07/28 17:20:26;;;;;;;0.88;0.30;;;21.70;96.70;;;;;;20621466;28;20113;-42
2022/07/28 17:30:29;;;;;;;0.85;0.22;;;21.70;96.80;;;;;;20619462;28;20574;-41
2022/07/28 17:40:30;;;;;;;0.90;0.30;;;21.60;96.50;;;;;;20622427;28;20237;-42
2022/07/28 17:50:31;;;;;;;9.60;0.40;;;21.60;96.50;;;;;;20621080;28;20657;-42
2022/07/28 18:00:32;;;;;;;0.28;0.15;;;21.40;96.50;;;;;;20622088;28;20567;-42
2022/07/28 18:10:34;;;;;;;1.10;0.15;;;21.30;96.60;;;;;;20618879;28;20444;-41
2022/07/28 18:20:36;;;;;;;0.35;0.20;;;21.30;97.00;;;;;;20614111;28;20117;-40
2022/07/28 18:30:38;;;;;;;0.52;0.20;;;21.20;97.80;;;;;;20617641;28;20167;-40
2022/07/28 18:40:40;;;;;;;1.08;0.30;;;21.00;98.20;;;;;;20615544;28;20140;-42
2022/07/28 18:50:42;;;;;;;0.43;0.20;;;20.90;98.70;;;;;;20624914;28;20149;-41
2022/07/28 19:00:44;;;;;;;0.60;0.20;;;20.70;98.90;;;;;;20618334;28;20170;-41
2022/07/28 19:10:45;;;;;;;1.85;0.20;;;20.50;99.60;;;;;;20626095;28;20162;-40
2022/07/28 19:20:46;;;;;;;4.15;0.60;;;20.30;99.90;;;;;;20621053;28;20136;-40
2022/07/28 19:30:48;;;;;;;0.85;0.20;;;20.10;99.90;;;;;;20639980;28;20030;-40
2022/07/28 19:40:49;;;;;;;0.80;0.20;;;19.60;99.90;;;;;;20668756;28;20033;-41
2022/07/28 19:50:51;;;;;;;0.88;0.25;;;19.30;99.90;;;;;;20688011;28;20030;-40
2022/07/28 20:00:52;;;;;;;0.93;0.25;;;19.00;99.90;;;;;;20685992;28;20104;-40
2022/07/28 20:10:54;;;;;;;0.35;0.10;;;18.90;99.90;;;;;;20687352;28;20042;-40
2022/07/28 20:20:55;;;;;;;1.00;0.30;;;18.90;99.90;;;;;;20703630;28;20067;-40
2022/07/28 20:30:56;;;;;;;0.82;0.20;;;18.80;99.90;;;;;;20712079;28;20088;-39
2022/07/28 20:40:57;;;;;;;0.68;0.20;;;18.70;99.90;;;;;;20714227;28;20097;-40
2022/07/28 20:51:01;;;;;;;0.32;0.10;;;18.70;99.90;;;;;;20724267;28;20481;-40
2022/07/28 21:01:02;;;;;;;0.38;0.10;;;18.60;99.90;;;;;;20718849;28;20090;-40
2022/07/28 21:11:03;;;;;;;0.70;0.20;;;18.60;99.90;;;;;;20715931;28;20027;-40
2022/07/28 21:21:05;;;;;;;0.73;0.20;;;18.50;99.90;;;;;;20720120;28;20462;-40
2022/07/28 21:31:06;;;;;;;0.43;0.15;;;18.50;99.90;;;;;;20717534;28;20046;-40
2022/07/28 21:41:07;;;;;;;1.15;0.20;;;18.30;99.90;;;;;;20714450;28;20038;-40
2022/07/28 21:51:12;;;;;;;3.22;0.20;;;18.40;99.90;;;;;;20719158;28;20040;-40
2022/07/28 22:01:14;;;;;;;0.82;0.20;;;18.20;99.90;;;;;;20716990;28;20059;-40
2022/07/28 22:11:15;;;;;;;1.00;0.30;;;18.20;99.90;;;;;;20725168;28;20038;-41
2022/07/28 22:21:16;;;;;;;0.85;0.25;;;18.00;99.90;;;;;;20716344;28;20034;-40
2022/07/28 22:31:17;;;;;;;0.50;0.20;;;17.90;99.90;;;;;;20713350;28;20038;-40
2022/07/28 22:41:18;;;;;;;1.45;0.40;;;17.90;99.90;;;;;;20709629;28;20050;-40
2022/07/28 22:51:19;;;;;;;0.50;0.10;;;17.70;99.90;;;;;;20699019;28;20397;-40
2022/07/28 23:01:20;;;;;;;0.95;0.57;;;17.70;99.90;;;;;;20713802;28;20546;-41
2022/07/28 23:11:21;;;;;;;1.05;0.65;;;17.60;99.90;;;;;;20694984;28;20171;-39
2022/07/28 23:21:23;;;;;;;0.40;0.15;;;17.60;99.90;;;;;;20681007;28;20038;-40
2022/07/28 23:31:23;;;;;;;0.77;0.20;;;17.40;99.90;;;;;;20673829;28;20033;-40
2022/07/28 23:41:25;;;;;;;0.30;0.10;;;17.30;99.90;;;;;;20672468;28;21003;-40
2022/07/28 23:51:27;;;;;;;1.27;0.20;;;17.10;99.90;;;;;;20664716;28;20044;-40
